Time;durP1;ratioP1;P1;durP2;ratioP2;P2;SDS_P1;SDS_P2;PMS_P1;PMS_P2;Temp;Humidity;BMP_temperature;BMP_pressure;BME280_temperature;BME280_humidity;BME280_pressure;Samples;Min_cycle;Max_cycle;Signal;HPM_P1;HPM_P2
2022/12/30 00:01:14;;;;;;;15.73;4.70;;;6.50;1.00;;;;;;5025748;28;20455;-64
2022/12/30 00:03:42;;;;;;;13.33;4.30;;;6.40;1.00;;;;;;5025995;28;20790;-64
2022/12/30 00:06:15;;;;;;;11.30;4.10;;;6.40;1.00;;;;;;5023046;28;20514;-63
2022/12/30 00:08:49;;;;;;;11.27;3.40;;;6.40;1.00;;;;;;5024191;28;20470;-64
2022/12/30 00:11:17;;;;;;;13.10;3.60;;;6.40;1.00;;;;;;5024401;28;20614;-63
2022/12/30 00:33:31;;;;;;;9.63;3.53;;;6.30;1.00;;;;;;5025631;28;20619;-64
2022/12/30 00:36:00;;;;;;;8.10;3.53;;;6.30;1.00;;;;;;5016142;28;20492;-64
2022/12/30 00:38:27;;;;;;;13.80;4.27;;;6.30;1.00;;;;;;5024386;28;20458;-64
2022/12/30 00:43:39;;;;;;;11.07;4.13;;;6.30;1.00;;;;;;5016978;28;20501;-64
2022/12/30 00:46:06;;;;;;;15.43;3.80;;;6.40;1.00;;;;;;5017301;28;20756;-64
2022/12/30 00:56:49;;;;;;;13.03;4.07;;;6.40;1.00;;;;;;5017071;28;20498;-64
2022/12/30 00:59:17;;;;;;;10.80;3.90;;;6.40;1.00;;;;;;5016844;28;20499;-63
2022/12/30 01:01:44;;;;;;;13.43;4.17;;;6.40;1.00;;;;;;5017348;28;20438;-64
2022/12/30 01:04:11;;;;;;;10.40;3.60;;;6.40;1.00;;;;;;5017291;28;20470;-64
2022/12/30 01:06:39;;;;;;;12.80;3.20;;;6.30;1.00;;;;;;5016281;28;20488;-64
2022/12/30 01:09:07;;;;;;;8.57;3.50;;;6.30;1.00;;;;;;5016780;28;20507;-64
2022/12/30 01:11:34;;;;;;;15.10;4.17;;;6.10;1.00;;;;;;5016669;28;20463;-64
2022/12/30 01:14:01;;;;;;;13.17;4.17;;;6.10;1.00;;;;;;5016933;28;20554;-64
2022/12/30 01:16:28;;;;;;;17.00;4.07;;;6.10;1.00;;;;;;5017009;28;20774;-64
2022/12/30 01:18:55;;;;;;;12.10;4.80;;;6.10;1.00;;;;;;5029340;28;20462;-64
2022/12/30 01:21:23;;;;;;;13.10;5.27;;;6.10;1.00;;;;;;5030776;28;20438;-64
2022/12/30 01:23:51;;;;;;;8.67;3.40;;;6.00;1.00;;;;;;5030369;28;20452;-64
2022/12/30 01:26:19;;;;;;;10.53;3.70;;;6.00;1.00;;;;;;5028824;28;20471;-64
2022/12/30 01:28:46;;;;;;;8.73;3.40;;;6.00;1.00;;;;;;5028773;28;20918;-64
2022/12/30 01:31:13;;;;;;;11.90;4.13;;;6.10;1.00;;;;;;5029617;28;20462;-64
2022/12/30 01:33:40;;;;;;;16.10;3.90;;;6.00;1.00;;;;;;5029058;28;20463;-64
2022/12/30 01:36:08;;;;;;;9.23;3.67;;;6.00;1.00;;;;;;5028341;28;20513;-64
2022/12/30 01:38:35;;;;;;;15.37;4.23;;;6.00;1.00;;;;;;5019202;28;20455;-64
2022/12/30 01:41:04;;;;;;;15.80;4.90;;;6.00;1.00;;;;;;5027389;28;20437;-64
2022/12/30 01:43:47;;;;;;;16.83;4.00;;;6.00;1.00;;;;;;5029808;28;20431;-63
2022/12/30 01:46:18;;;;;;;13.10;3.53;;;6.00;1.00;;;;;;5028217;28;20813;-64
2022/12/30 01:48:46;;;;;;;14.30;3.90;;;5.90;1.00;;;;;;5028243;28;20831;-64
2022/12/30 01:51:21;;;;;;;8.37;3.97;;;5.90;1.00;;;;;;5027633;28;20470;-64
2022/12/30 01:53:51;;;;;;;12.63;4.13;;;5.80;1.00;;;;;;5027961;28;20806;-64
2022/12/30 01:56:26;;;;;;;13.47;3.97;;;5.80;1.00;;;;;;5018880;28;20963;-64
2022/12/30 01:58:57;;;;;;;19.10;4.50;;;5.80;1.00;;;;;;5027595;28;20457;-64
2022/12/30 02:01:24;;;;;;;11.30;4.60;;;5.80;1.00;;;;;;5028111;28;20462;-64
2022/12/30 02:03:57;;;;;;;13.93;3.70;;;5.70;1.00;;;;;;5026786;28;20996;-64
2022/12/30 02:06:31;;;;;;;11.27;3.90;;;5.70;1.00;;;;;;5019652;28;20570;-64
2022/12/30 02:08:59;;;;;;;9.77;3.63;;;5.70;1.00;;;;;;5019904;28;20802;-64
2022/12/30 02:11:29;;;;;;;13.33;3.93;;;5.70;1.00;;;;;;5020053;28;20741;-64
2022/12/30 02:13:56;;;;;;;9.83;3.50;;;5.70;1.00;;;;;;5038726;28;20507;-64
2022/12/30 02:16:41;;;;;;;10.37;3.33;;;5.70;1.00;;;;;;5059550;28;20496;-64
2022/12/30 02:19:40;;;;;;;11.20;2.73;;;5.70;1.00;;;;;;5059398;28;20454;-64
2022/12/30 02:22:13;;;;;;;12.27;3.50;;;5.60;1.00;;;;;;5059831;28;20461;-64
2022/12/30 02:25:13;;;;;;;11.70;3.20;;;5.60;1.00;;;;;;5059645;28;20443;-64
2022/12/30 02:28:18;;;;;;;15.27;4.10;;;5.50;1.00;;;;;;5015793;28;20531;-64
2022/12/30 02:31:17;;;;;;;10.77;3.70;;;5.50;1.00;;;;;;5019420;28;20514;-64
2022/12/30 02:33:50;;;;;;;14.40;4.87;;;5.50;1.00;;;;;;5014876;28;20519;-64
2022/12/30 02:36:22;;;;;;;17.00;4.30;;;5.50;1.00;;;;;;5019447;28;20565;-64
2022/12/30 02:39:02;;;;;;;9.70;4.10;;;5.50;1.00;;;;;;5019590;28;20558;-64
2022/12/30 02:44:39;;;;;;;9.40;3.20;;;5.60;1.00;;;;;;5019232;28;20587;-64
2022/12/30 02:47:14;;;;;;;13.27;3.43;;;5.50;1.00;;;;;;5055277;28;20429;-64
2022/12/30 02:52:13;;;;;;;12.23;3.70;;;5.50;1.00;;;;;;5058799;28;20519;-64
2022/12/30 02:52:32;;;;;;;12.93;3.73;;;5.60;1.00;;;;;;5059127;28;20466;-64
2022/12/30 02:55:00;;;;;;;14.50;4.10;;;5.60;1.00;;;;;;5059301;28;20756;-64
2022/12/30 02:57:29;;;;;;;7.80;3.40;;;5.50;1.00;;;;;;5058395;28;20469;-64
2022/12/30 03:06:18;;;;;;;9.97;4.47;;;5.40;1.00;;;;;;5058341;28;20499;-64
2022/12/30 03:08:52;;;;;;;15.67;3.73;;;5.40;1.00;;;;;;5059054;28;20433;-64
2022/12/30 03:11:19;;;;;;;11.00;3.30;;;5.40;1.00;;;;;;5058491;28;20460;-64
2022/12/30 03:13:54;;;;;;;13.10;3.37;;;5.30;1.00;;;;;;5058952;28;20458;-64
2022/12/30 03:16:28;;;;;;;8.90;3.30;;;5.30;1.00;;;;;;5058474;28;20490;-64
2022/12/30 03:18:59;;;;;;;12.33;3.90;;;5.30;1.00;;;;;;5058705;28;20463;-64
2022/12/30 03:21:30;;;;;;;20.50;4.00;;;5.20;1.00;;;;;;5058282;28;20749;-64
2022/12/30 03:27:05;;;;;;;13.03;3.67;;;5.20;1.00;;;;;;5038247;28;20435;-64
2022/12/30 03:29:37;;;;;;;14.13;3.60;;;5.20;1.00;;;;;;5037512;28;20463;-64
2022/12/30 03:32:06;;;;;;;11.30;4.57;;;5.10;1.00;;;;;;5037934;28;20467;-64
2022/12/30 03:34:35;;;;;;;11.90;3.40;;;5.10;1.00;;;;;;5037662;28;20463;-64
2022/12/30 03:37:08;;;;;;;11.03;3.23;;;5.00;13.60;;;;;;5038251;28;20932;-64
2022/12/30 03:39:38;;;;;;;5.17;3.27;;;5.00;35.70;;;;;;5038416;28;20529;-64
2022/12/30 03:42:07;;;;;;;16.90;4.10;;;5.00;29.50;;;;;;5037976;28;20743;-64
2022/12/30 03:44:36;;;;;;;20.47;4.50;;;5.00;42.20;;;;;;5038121;28;20471;-64
2022/12/30 03:47:03;;;;;;;8.80;3.47;;;4.90;29.00;;;;;;5038149;28;20459;-64
2022/12/30 03:49:30;;;;;;;13.70;3.87;;;5.00;54.40;;;;;;5037419;28;20467;-64
2022/12/30 03:51:59;;;;;;;10.10;4.00;;;4.90;32.10;;;;;;5037811;28;20449;-64
2022/12/30 03:54:26;;;;;;;9.63;3.40;;;4.90;28.60;;;;;;5037815;28;20474;-64
2022/12/30 03:56:53;;;;;;;14.27;4.10;;;4.90;46.80;;;;;;5038107;28;20597;-64
2022/12/30 03:59:21;;;;;;;9.00;3.80;;;4.90;52.80;;;;;;5037567;28;20757;-64
2022/12/30 04:01:48;;;;;;;10.00;3.53;;;4.80;62.30;;;;;;5037705;28;20782;-64
2022/12/30 04:04:15;;;;;;;14.70;3.53;;;4.90;93.20;;;;;;5037659;28;20465;-64
2022/12/30 04:06:42;;;;;;;9.20;3.77;;;4.90;99.90;;;;;;5037643;28;20493;-64
2022/12/30 04:09:11;;;;;;;14.77;2.93;;;4.80;90.50;;;;;;5037459;28;20900;-64
2022/12/30 04:11:38;;;;;;;10.23;4.10;;;4.80;99.90;;;;;;5037313;28;20463;-64
2022/12/30 04:14:05;;;;;;;10.53;3.00;;;4.90;99.90;;;;;;5037690;28;20437;-65
2022/12/30 04:16:32;;;;;;;6.40;4.40;;;4.90;99.90;;;;;;5037477;28;20935;-64
2022/12/30 04:18:59;;;;;;;7.97;3.60;;;4.80;99.90;;;;;;5037560;28;20437;-64
2022/12/30 04:21:26;;;;;;;9.70;4.07;;;4.90;99.90;;;;;;5037175;28;20437;-64
2022/12/30 04:23:54;;;;;;;10.63;3.70;;;4.90;99.90;;;;;;5037414;28;20441;-64
2022/12/30 04:26:22;;;;;;;10.63;4.17;;;4.80;99.90;;;;;;5037697;28;20509;-62
2022/12/30 04:28:49;;;;;;;12.83;3.40;;;4.90;99.90;;;;;;5036984;28;20876;-63
2022/12/30 04:31:17;;;;;;;10.40;3.60;;;4.80;99.90;;;;;;5036654;28;20862;-64
2022/12/30 04:33:44;;;;;;;12.33;3.63;;;4.90;99.90;;;;;;5037319;28;20470;-64
2022/12/30 04:36:11;;;;;;;9.60;3.77;;;4.80;99.90;;;;;;5037234;28;20962;-64
2022/12/30 04:38:38;;;;;;;9.50;4.03;;;4.90;99.90;;;;;;5037338;28;20470;-64
2022/12/30 04:41:05;;;;;;;13.13;4.13;;;4.90;99.90;;;;;;5037668;28;20541;-64
2022/12/30 04:43:34;;;;;;;12.87;4.60;;;4.80;99.90;;;;;;5036573;28;20469;-64
2022/12/30 04:46:01;;;;;;;10.23;3.80;;;4.90;99.90;;;;;;5037108;28;20950;-64
2022/12/30 04:48:28;;;;;;;12.33;4.40;;;4.80;99.90;;;;;;5037106;28;20437;-64
2022/12/30 04:50:55;;;;;;;10.10;3.83;;;4.80;99.90;;;;;;5037270;28;20467;-64
2022/12/30 04:53:22;;;;;;;7.57;3.13;;;4.80;99.90;;;;;;5042348;28;20438;-64
2022/12/30 04:55:53;;;;;;;8.10;3.03;;;4.80;99.90;;;;;;5043497;28;20437;-64
2022/12/30 04:58:20;;;;;;;10.70;4.40;;;4.80;99.90;;;;;;5043937;28;20470;-64
2022/12/30 05:00:50;;;;;;;18.70;3.80;;;4.80;99.90;;;;;;5043597;28;20473;-64
2022/12/30 05:03:17;;;;;;;7.63;3.77;;;4.90;99.90;;;;;;5043179;28;20462;-64
2022/12/30 05:05:44;;;;;;;12.23;4.23;;;4.90;99.90;;;;;;5043130;28;20493;-64
2022/12/30 05:08:12;;;;;;;10.77;3.83;;;4.80;99.90;;;;;;5043543;28;20459;-65
2022/12/30 05:10:39;;;;;;;9.17;3.60;;;4.80;99.90;;;;;;5043652;28;20437;-64
2022/12/30 05:13:08;;;;;;;12.40;4.07;;;4.80;99.90;;;;;;5043953;28;20880;-64
2022/12/30 05:15:35;;;;;;;12.30;3.27;;;4.90;99.90;;;;;;5043503;28;20469;-64
2022/12/30 05:18:04;;;;;;;8.60;3.47;;;4.90;99.90;;;;;;5043371;28;20944;-65
2022/12/30 05:20:31;;;;;;;10.87;3.53;;;4.90;99.90;;;;;;5061651;28;20764;-65
2022/12/30 05:22:58;;;;;;;11.67;3.90;;;4.90;99.90;;;;;;5063360;28;20867;-65
2022/12/30 05:28:12;;;;;;;7.90;2.90;;;4.90;99.90;;;;;;5028319;28;20426;-64
2022/12/30 05:30:39;;;;;;;11.37;3.43;;;4.80;99.90;;;;;;5063533;28;20467;-64
2022/12/30 05:33:08;;;;;;;7.53;3.40;;;4.80;99.90;;;;;;5034202;28;20895;-65
2022/12/30 05:35:35;;;;;;;12.37;3.40;;;4.80;99.90;;;;;;5039348;28;20450;-64
2022/12/30 05:38:03;;;;;;;12.97;3.57;;;4.80;99.90;;;;;;5024314;28;20943;-63
2022/12/30 05:40:30;;;;;;;8.90;4.20;;;4.80;99.90;;;;;;5022725;28;20558;-64
2022/12/30 05:42:57;;;;;;;6.63;2.80;;;4.80;99.90;;;;;;5023334;28;20529;-64
2022/12/30 05:45:24;;;;;;;15.30;4.07;;;4.80;99.90;;;;;;5022900;28;20463;-64
2022/12/30 05:47:51;;;;;;;7.90;3.10;;;4.80;99.90;;;;;;5021884;28;20464;-65
2022/12/30 05:50:20;;;;;;;7.47;3.00;;;4.70;99.90;;;;;;5022300;28;20467;-64
2022/12/30 05:52:47;;;;;;;9.33;2.97;;;4.70;99.90;;;;;;5022403;28;20976;-65
2022/12/30 05:55:14;;;;;;;14.97;3.17;;;4.70;99.90;;;;;;5022236;28;20464;-64
2022/12/30 05:57:41;;;;;;;11.43;3.70;;;4.70;99.90;;;;;;5022480;28;20804;-65
2022/12/30 06:00:10;;;;;;;8.47;3.27;;;4.70;99.90;;;;;;5034837;28;20436;-66
2022/12/30 06:02:37;;;;;;;14.73;3.57;;;4.70;99.90;;;;;;5023362;28;20558;-64
2022/12/30 06:05:05;;;;;;;10.73;3.17;;;4.70;99.90;;;;;;5025618;28;20486;-65
2022/12/30 06:07:33;;;;;;;9.47;3.20;;;4.70;99.90;;;;;;5039279;28;20463;-64
2022/12/30 06:10:00;;;;;;;7.80;3.30;;;4.70;99.90;;;;;;5040196;28;20473;-63
2022/12/30 06:12:27;;;;;;;11.87;4.03;;;4.80;99.90;;;;;;5040069;28;20779;-64
2022/12/30 06:14:55;;;;;;;12.73;3.17;;;4.80;99.90;;;;;;5039867;28;20467;-63
2022/12/30 06:17:22;;;;;;;9.33;2.87;;;4.70;99.90;;;;;;5039766;28;20495;-64
2022/12/30 06:19:49;;;;;;;12.97;3.70;;;4.80;99.90;;;;;;5031479;28;20460;-64
2022/12/30 06:22:16;;;;;;;8.97;3.20;;;4.80;99.90;;;;;;5019513;28;20442;-64
2022/12/30 06:24:45;;;;;;;8.60;2.97;;;4.90;99.90;;;;;;5019925;28;20470;-63
2022/12/30 06:27:12;;;;;;;7.00;2.97;;;4.90;99.90;;;;;;5019235;28;20456;-63
2022/12/30 06:29:39;;;;;;;13.73;3.37;;;4.90;99.90;;;;;;5019387;28;20533;-64
2022/12/30 06:32:06;;;;;;;11.93;4.50;;;4.90;99.90;;;;;;5019417;28;20445;-63
2022/12/30 06:34:34;;;;;;;11.57;3.60;;;4.90;99.90;;;;;;5019619;28;20758;-63
2022/12/30 06:37:01;;;;;;;16.70;3.77;;;4.90;99.90;;;;;;5019587;28;20531;-63
2022/12/30 06:39:28;;;;;;;6.13;3.10;;;4.90;99.90;;;;;;5019184;28;20467;-63
2022/12/30 06:41:56;;;;;;;9.30;3.40;;;4.90;99.90;;;;;;5019339;28;20518;-63
2022/12/30 06:44:24;;;;;;;8.93;3.80;;;4.90;99.90;;;;;;5019458;28;20464;-63
2022/12/30 06:46:51;;;;;;;12.47;3.57;;;4.90;99.90;;;;;;5019341;28;20760;-64
2022/12/30 06:49:18;;;;;;;7.77;3.70;;;5.00;99.90;;;;;;5037664;28;20433;-63
2022/12/30 06:51:45;;;;;;;8.33;3.40;;;5.00;90.20;;;;;;5038933;28;20481;-63
2022/12/30 06:54:12;;;;;;;5.27;3.20;;;5.00;60.00;;;;;;5039065;28;20772;-63
2022/12/30 06:56:39;;;;;;;13.53;3.63;;;4.90;45.90;;;;;;5039418;28;20494;-63
2022/12/30 06:59:08;;;;;;;10.50;2.87;;;4.90;44.20;;;;;;5039076;28;21009;-64
2022/12/30 07:01:35;;;;;;;8.30;3.00;;;4.90;57.60;;;;;;5038920;28;20573;-64
2022/12/30 07:04:02;;;;;;;8.50;3.17;;;5.00;49.50;;;;;;5038911;28;20438;-63
2022/12/30 07:06:29;;;;;;;7.80;4.03;;;5.00;31.80;;;;;;5037542;28;20491;-64
2022/12/30 07:08:56;;;;;;;11.53;3.23;;;5.00;21.50;;;;;;5038891;28;20873;-63
2022/12/30 07:11:24;;;;;;;9.93;3.37;;;5.00;16.50;;;;;;5036393;28;20463;-63
2022/12/30 07:13:51;;;;;;;9.60;2.77;;;5.00;12.70;;;;;;5031751;28;20468;-64
2022/12/30 07:16:20;;;;;;;8.30;3.33;;;5.00;4.20;;;;;;5031509;28;20774;-64
2022/12/30 07:18:47;;;;;;;11.63;3.10;;;5.00;1.00;;;;;;5028239;28;20501;-64
2022/12/30 07:21:14;;;;;;;10.30;3.80;;;5.00;1.00;;;;;;5024171;28;20449;-63
2022/12/30 07:23:41;;;;;;;8.97;3.57;;;5.00;1.70;;;;;;5026220;28;20806;-63
2022/12/30 07:26:08;;;;;;;8.00;3.03;;;5.00;1.00;;;;;;5026778;28;20469;-65
2022/12/30 07:28:35;;;;;;;7.93;2.80;;;5.00;1.00;;;;;;5027340;28;20464;-63
2022/12/30 07:31:03;;;;;;;7.13;3.20;;;5.00;1.00;;;;;;5028341;28;20876;-64
2022/12/30 07:33:31;;;;;;;7.73;3.20;;;5.10;1.00;;;;;;5029319;28;20473;-63
2022/12/30 07:36:00;;;;;;;9.70;3.03;;;5.10;1.00;;;;;;5028318;28;20463;-63
2022/12/30 07:38:27;;;;;;;16.37;4.40;;;5.10;1.00;;;;;;5025751;28;20491;-64
2022/12/30 07:40:54;;;;;;;12.53;3.40;;;5.10;1.00;;;;;;5034522;28;20471;-63
2022/12/30 07:43:21;;;;;;;6.40;3.10;;;5.10;2.00;;;;;;5027171;28;20897;-63
2022/12/30 07:45:48;;;;;;;13.80;3.83;;;5.10;15.60;;;;;;5027467;28;20470;-64
2022/12/30 07:48:15;;;;;;;9.37;3.30;;;5.10;25.50;;;;;;5027398;28;20451;-63
2022/12/30 07:50:44;;;;;;;10.57;3.50;;;5.10;27.30;;;;;;5025495;28;20562;-63
2022/12/30 07:53:11;;;;;;;12.17;3.83;;;5.10;29.00;;;;;;5025894;28;20464;-64
2022/12/30 07:55:40;;;;;;;9.20;3.40;;;5.10;40.30;;;;;;5028908;28;20466;-64
2022/12/30 07:58:07;;;;;;;9.60;3.30;;;5.10;61.70;;;;;;5036884;28;20491;-64
2022/12/30 08:00:35;;;;;;;5.07;2.50;;;5.10;69.00;;;;;;5017037;28;20543;-63
2022/12/30 08:03:02;;;;;;;12.77;2.87;;;5.10;73.10;;;;;;5026037;28;20440;-63
2022/12/30 08:05:29;;;;;;;12.50;3.33;;;5.20;70.70;;;;;;5022826;28;20502;-64
2022/12/30 08:07:57;;;;;;;6.77;2.63;;;5.20;33.70;;;;;;5023064;28;20783;-64
2022/12/30 08:10:25;;;;;;;14.60;3.50;;;5.30;17.20;;;;;;5029119;28;20776;-64
2022/12/30 08:12:52;;;;;;;10.97;3.30;;;5.30;3.70;;;;;;5027820;28;20460;-64
2022/12/30 08:15:19;;;;;;;9.27;3.17;;;5.40;1.00;;;;;;5023779;28;20468;-64
2022/12/30 08:17:46;;;;;;;9.37;3.20;;;5.40;1.00;;;;;;5024417;28;20775;-64
2022/12/30 08:20:13;;;;;;;8.90;3.10;;;5.40;1.00;;;;;;5027708;28;20463;-64
2022/12/30 08:22:40;;;;;;;8.10;2.63;;;5.40;1.00;;;;;;5026843;28;20461;-64
2022/12/30 08:25:09;;;;;;;9.63;3.57;;;5.40;1.00;;;;;;5022246;28;20518;-64
2022/12/30 08:27:37;;;;;;;5.60;3.20;;;5.50;1.00;;;;;;5033677;28;20460;-65
2022/12/30 08:30:04;;;;;;;7.43;3.70;;;5.60;1.00;;;;;;5036579;28;20497;-68
2022/12/30 08:32:32;;;;;;;13.60;3.33;;;5.60;1.00;;;;;;5036945;28;20485;-68
2022/12/30 08:34:59;;;;;;;10.97;3.37;;;5.60;1.00;;;;;;5028652;28;20811;-69
2022/12/30 08:37:26;;;;;;;10.20;3.07;;;5.70;1.00;;;;;;5025519;28;20469;-69
2022/12/30 08:39:53;;;;;;;9.20;2.60;;;5.80;1.00;;;;;;5026119;28;20883;-70
2022/12/30 08:42:22;;;;;;;6.87;2.77;;;5.80;1.00;;;;;;5018967;28;20800;-66
2022/12/30 08:44:49;;;;;;;9.23;2.90;;;5.90;1.00;;;;;;5026989;28;20481;-65
2022/12/30 08:47:16;;;;;;;6.07;3.17;;;5.90;1.00;;;;;;5036773;28;20462;-67
2022/12/30 08:49:43;;;;;;;7.00;3.10;;;6.00;1.00;;;;;;5035974;28;20775;-66
2022/12/30 08:52:11;;;;;;;8.03;4.00;;;6.10;1.00;;;;;;5036837;28;20920;-67
2022/12/30 08:54:38;;;;;;;7.23;2.93;;;6.10;1.00;;;;;;5037263;28;20463;-66
2022/12/30 08:57:07;;;;;;;8.60;4.13;;;6.10;1.00;;;;;;5025938;28;20478;-66
2022/12/30 08:59:38;;;;;;;5.83;2.80;;;6.20;1.00;;;;;;5016748;28;20467;-66
2022/12/30 09:02:06;;;;;;;5.37;3.00;;;6.20;1.00;;;;;;5017064;28;20874;-68
2022/12/30 09:04:33;;;;;;;8.20;3.10;;;6.30;1.00;;;;;;5017103;28;20470;-67
2022/12/30 09:07:00;;;;;;;7.77;2.93;;;6.30;1.00;;;;;;5028906;28;20472;-65
2022/12/30 09:09:28;;;;;;;13.27;3.40;;;6.30;1.00;;;;;;5026544;28;20541;-66
2022/12/30 09:11:55;;;;;;;6.13;3.27;;;6.40;1.00;;;;;;5023039;28;21108;-67
2022/12/30 09:14:23;;;;;;;7.20;2.83;;;6.40;1.00;;;;;;5026273;28;20464;-66
2022/12/30 09:16:51;;;;;;;8.33;2.77;;;6.40;1.00;;;;;;5026374;28;20782;-66
2022/12/30 09:19:18;;;;;;;7.17;3.10;;;6.50;1.00;;;;;;5023140;28;20491;-67
2022/12/30 09:21:46;;;;;;;8.47;2.70;;;6.60;1.00;;;;;;5025217;28;20762;-66
2022/12/30 09:24:13;;;;;;;5.10;2.60;;;6.70;1.00;;;;;;5025957;28;20458;-66
2022/12/30 09:26:40;;;;;;;7.23;2.83;;;6.80;1.00;;;;;;5024956;28;20438;-66
2022/12/30 09:29:07;;;;;;;7.37;2.70;;;6.90;1.00;;;;;;5024685;28;20463;-67
2022/12/30 09:31:34;;;;;;;6.37;2.93;;;7.00;1.00;;;;;;5023878;28;20470;-67
2022/12/30 09:34:06;;;;;;;7.50;2.50;;;7.20;1.00;;;;;;5026203;28;20465;-64
2022/12/30 09:36:33;;;;;;;7.93;3.10;;;7.20;1.00;;;;;;5026006;28;20493;-64
2022/12/30 09:39:00;;;;;;;6.50;2.60;;;7.30;1.00;;;;;;5025553;28;20580;-64
2022/12/30 09:44:32;;;;;;;5.00;2.37;;;7.30;1.00;;;;;;5023824;28;20431;-64
2022/12/30 09:47:08;;;;;;;5.50;3.10;;;7.30;1.00;;;;;;5027956;28;20725;-64
2022/12/30 09:49:43;;;;;;;6.30;3.00;;;7.40;1.00;;;;;;5026953;28;20462;-63
2022/12/30 09:52:17;;;;;;;10.43;3.20;;;7.40;1.00;;;;;;5030779;28;20489;-63
2022/12/30 09:54:53;;;;;;;8.43;3.20;;;7.40;1.00;;;;;;5027975;28;20459;-64
2022/12/30 09:57:33;;;;;;;9.30;3.43;;;7.50;1.00;;;;;;5025723;28;20446;-64
2022/12/30 10:00:07;;;;;;;5.47;2.60;;;7.50;1.00;;;;;;5025444;28;20481;-63
2022/12/30 10:02:52;;;;;;;6.60;3.10;;;7.50;1.00;;;;;;5036646;28;20461;-64
2022/12/30 10:05:34;;;;;;;5.00;2.83;;;7.50;1.00;;;;;;5036621;28;20554;-64
2022/12/30 10:08:16;;;;;;;5.37;2.57;;;7.60;1.00;;;;;;5037059;28;20459;-63
2022/12/30 10:10:48;;;;;;;14.33;3.10;;;7.70;1.00;;;;;;5038914;28;20457;-63
2022/12/30 10:13:19;;;;;;;7.30;2.50;;;7.80;1.00;;;;;;5038556;28;20955;-62
2022/12/30 10:15:53;;;;;;;4.40;2.07;;;8.00;1.00;;;;;;5038555;28;20455;-63
2022/12/30 10:18:53;;;;;;;4.10;2.27;;;8.10;1.00;;;;;;5030283;28;20495;-62
2022/12/30 10:21:34;;;;;;;3.80;2.37;;;8.40;1.00;;;;;;5004995;28;20558;-62
2022/12/30 10:24:16;;;;;;;9.43;2.97;;;8.70;1.00;;;;;;5015476;28;20804;-63
2022/12/30 10:26:47;;;;;;;5.63;2.43;;;8.90;99.90;;;;;;5017523;28;20442;-62
2022/12/30 10:29:18;;;;;;;8.20;2.13;;;9.10;99.90;;;;;;5034967;28;20430;-62
2022/12/30 10:31:47;;;;;;;8.00;2.47;;;9.30;99.90;;;;;;5014385;28;20551;-62
2022/12/30 10:34:16;;;;;;;4.50;2.13;;;9.50;99.90;;;;;;5023340;28;20852;-62
2022/12/30 10:37:00;;;;;;;6.40;2.23;;;9.50;99.90;;;;;;5036641;28;20489;-62
2022/12/30 10:39:31;;;;;;;6.80;2.30;;;9.60;99.90;;;;;;5036386;28;20494;-63
2022/12/30 10:42:13;;;;;;;5.33;2.20;;;9.90;99.90;;;;;;5036956;28;20860;-61
2022/12/30 10:44:55;;;;;;;5.60;2.20;;;10.00;99.90;;;;;;5035608;28;20467;-62
2022/12/30 10:47:39;;;;;;;4.10;2.37;;;9.70;99.90;;;;;;5035812;28;20473;-63
2022/12/30 10:50:25;;;;;;;5.83;2.20;;;9.70;99.90;;;;;;5035010;28;20459;-62
2022/12/30 10:52:54;;;;;;;7.27;2.90;;;9.60;99.90;;;;;;5036452;28;20468;-62
2022/12/30 10:55:25;;;;;;;9.80;2.30;;;9.60;99.90;;;;;;5035980;28;20437;-62
2022/12/30 10:57:59;;;;;;;3.27;2.30;;;9.60;99.90;;;;;;5035602;28;20474;-62
2022/12/30 11:00:27;;;;;;;5.63;2.47;;;9.40;99.90;;;;;;5035826;28;20441;-61
2022/12/30 11:02:58;;;;;;;3.73;2.10;;;9.10;99.90;;;;;;5035068;28;20478;-63
2022/12/30 11:05:31;;;;;;;7.93;2.30;;;9.00;99.90;;;;;;5033943;28;20469;-62
2022/12/30 11:08:02;;;;;;;8.43;2.50;;;9.00;99.90;;;;;;5035964;28;20594;-62
2022/12/30 11:10:30;;;;;;;4.20;2.57;;;8.90;99.90;;;;;;5036587;28;21246;-62
2022/12/30 11:15:59;;;;;;;6.90;2.30;;;8.70;99.90;;;;;;5036285;28;20456;-62
2022/12/30 11:18:30;;;;;;;8.53;3.90;;;8.70;99.90;;;;;;5035203;28;20487;-62
2022/12/30 11:20:59;;;;;;;4.50;2.37;;;8.60;99.90;;;;;;5037867;28;20467;-64
2022/12/30 11:23:32;;;;;;;7.43;3.63;;;8.60;99.90;;;;;;5037305;28;20472;-62
2022/12/30 11:26:01;;;;;;;4.90;2.80;;;8.60;99.90;;;;;;5021236;28;20780;-61
2022/12/30 11:28:32;;;;;;;7.57;2.60;;;8.60;99.90;;;;;;5018627;28;20470;-62
2022/12/30 11:31:06;;;;;;;5.80;3.30;;;8.50;99.90;;;;;;5035764;28;20494;-61
2022/12/30 11:33:42;;;;;;;5.13;2.67;;;8.50;99.90;;;;;;5037054;28;20947;-61
2022/12/30 11:36:15;;;;;;;5.63;2.80;;;8.40;99.90;;;;;;5037401;28;20532;-63
2022/12/30 11:38:46;;;;;;;5.30;3.20;;;8.50;99.90;;;;;;5037031;28;20465;-63
2022/12/30 11:41:25;;;;;;;3.60;2.37;;;8.40;99.90;;;;;;5035379;28;20473;-62
2022/12/30 11:44:07;;;;;;;6.90;2.80;;;8.40;99.90;;;;;;5034521;28;20463;-62
2022/12/30 11:46:37;;;;;;;4.93;2.67;;;8.30;99.90;;;;;;5035140;28;20473;-62
2022/12/30 11:49:06;;;;;;;5.63;2.60;;;8.30;99.90;;;;;;5035065;28;20962;-62
2022/12/30 11:51:41;;;;;;;4.33;2.73;;;8.30;99.90;;;;;;5035014;28;20467;-62
2022/12/30 11:54:17;;;;;;;3.77;2.20;;;8.30;99.90;;;;;;5033387;28;20441;-62
2022/12/30 11:56:53;;;;;;;3.97;2.30;;;8.30;99.90;;;;;;5033494;28;20481;-62
2022/12/30 11:59:24;;;;;;;5.67;2.60;;;8.30;99.90;;;;;;5034628;28;20787;-63
2022/12/30 12:01:54;;;;;;;5.33;2.47;;;8.30;99.90;;;;;;5033719;28;20471;-62
2022/12/30 12:04:35;;;;;;;6.20;2.73;;;8.30;99.90;;;;;;5015772;28;20487;-61
2022/12/30 12:07:02;;;;;;;4.93;2.93;;;8.30;99.90;;;;;;5001793;28;20462;-63
2022/12/30 12:09:37;;;;;;;4.70;2.70;;;8.30;99.90;;;;;;5005722;28;20948;-62
2022/12/30 12:12:10;;;;;;;7.20;2.50;;;8.30;99.90;;;;;;5006637;28;20571;-64
2022/12/30 12:14:50;;;;;;;4.07;2.73;;;8.40;99.90;;;;;;5002783;28;20462;-62
2022/12/30 12:17:29;;;;;;;5.70;2.73;;;8.30;99.90;;;;;;5003973;28;20548;-63
2022/12/30 12:20:00;;;;;;;3.27;2.10;;;8.30;99.90;;;;;;5002958;28;20499;-62
2022/12/30 12:22:33;;;;;;;5.80;2.60;;;8.30;99.90;;;;;;5012334;28;20470;-63
2022/12/30 12:25:08;;;;;;;10.27;3.07;;;8.30;99.90;;;;;;5010265;28;20886;-63
2022/12/30 12:27:35;;;;;;;5.00;2.60;;;8.30;99.90;;;;;;5015861;28;20769;-58
2022/12/30 12:30:02;;;;;;;8.57;2.47;;;8.40;99.90;;;;;;5012093;28;20434;-63
2022/12/30 12:32:48;;;;;;;4.30;2.10;;;8.40;99.90;;;;;;5016153;28;20460;-63
2022/12/30 12:35:24;;;;;;;7.87;2.17;;;8.40;99.90;;;;;;5015961;28;20475;-63
2022/12/30 12:38:03;;;;;;;10.77;2.70;;;8.40;99.90;;;;;;5016389;28;20464;-63
2022/12/30 12:40:51;;;;;;;3.53;2.40;;;8.40;99.90;;;;;;5016251;28;20492;-62
2022/12/30 12:43:22;;;;;;;8.00;2.37;;;8.40;99.90;;;;;;5020925;28;20469;-63
2022/12/30 12:46:06;;;;;;;3.30;2.10;;;8.40;99.90;;;;;;5009799;28;20781;-62
2022/12/30 12:48:58;;;;;;;3.63;2.00;;;8.40;99.90;;;;;;4996392;28;20461;-62
2022/12/30 12:51:41;;;;;;;3.53;2.30;;;8.40;99.90;;;;;;5002306;28;20482;-63
2022/12/30 12:55:13;;;;;;;4.20;2.27;;;8.40;99.90;;;;;;5015067;28;20552;-63
2022/12/30 12:57:50;;;;;;;5.27;2.47;;;8.40;99.90;;;;;;4997788;28;20438;-63
2022/12/30 13:00:20;;;;;;;5.60;2.10;;;8.40;99.90;;;;;;5001674;28;20533;-63
2022/12/30 13:03:34;;;;;;;6.67;2.20;;;8.50;99.90;;;;;;5015260;28;20468;-63
2022/12/30 13:06:11;;;;;;;4.20;2.53;;;8.50;99.90;;;;;;4961581;28;20581;-62
2022/12/30 13:09:02;;;;;;;4.73;2.23;;;8.50;99.90;;;;;;5025351;28;20922;-63
2022/12/30 13:11:37;;;;;;;8.07;2.60;;;8.50;99.90;;;;;;5035212;28;20463;-62
2022/12/30 13:14:16;;;;;;;5.40;1.83;;;8.60;99.90;;;;;;5030129;28;20437;-63
2022/12/30 13:16:48;;;;;;;11.00;2.07;;;8.60;99.90;;;;;;5027585;28;20461;-62
2022/12/30 13:19:17;;;;;;;5.30;2.00;;;8.60;99.90;;;;;;5030806;28;20766;-63
2022/12/30 13:21:47;;;;;;;4.00;2.50;;;8.60;99.90;;;;;;5031096;28;20435;-63
2022/12/30 13:24:21;;;;;;;3.23;2.20;;;8.60;99.90;;;;;;5035369;28;20465;-61
2022/12/30 13:26:49;;;;;;;5.50;2.60;;;8.60;99.90;;;;;;5024542;28;20778;-63
2022/12/30 13:29:17;;;;;;;6.37;2.33;;;8.60;99.90;;;;;;5027723;28;20775;-62
2022/12/30 13:31:55;;;;;;;4.87;2.20;;;8.60;99.90;;;;;;5026886;28;20803;-62
2022/12/30 13:34:32;;;;;;;6.63;2.13;;;8.60;99.90;;;;;;5038498;28;20921;-61
2022/12/30 13:37:07;;;;;;;10.23;2.97;;;8.60;99.90;;;;;;5038081;28;20513;-62
2022/12/30 13:39:40;;;;;;;4.13;2.30;;;8.50;1.00;;;;;;5037897;28;20490;-62
2022/12/30 13:42:30;;;;;;;4.87;3.30;;;8.40;1.00;;;;;;5026058;28;20443;-56
2022/12/30 13:44:59;;;;;;;6.20;2.37;;;8.30;1.00;;;;;;5033262;28;20462;-59
2022/12/30 13:47:36;;;;;;;7.00;2.43;;;8.20;1.00;;;;;;5037592;28;20438;-59
2022/12/30 13:50:24;;;;;;;6.13;2.20;;;8.10;1.00;;;;;;5038234;28;20476;-60
2022/12/30 13:52:53;;;;;;;8.13;2.10;;;8.00;1.00;;;;;;5032865;28;20517;-61
2022/12/30 13:55:23;;;;;;;5.40;2.10;;;7.90;1.00;;;;;;5018862;28;20456;-61
2022/12/30 13:57:57;;;;;;;4.03;2.00;;;7.90;1.00;;;;;;5018798;28;20457;-60
2022/12/30 14:00:29;;;;;;;5.10;2.50;;;7.90;1.00;;;;;;5022837;28;20810;-60
2022/12/30 14:03:06;;;;;;;13.47;2.60;;;7.80;26.20;;;;;;5028990;28;20459;-61
2022/12/30 14:06:02;;;;;;;4.43;1.90;;;7.80;44.60;;;;;;5026287;28;20494;-63
2022/12/30 14:08:53;;;;;;;4.63;2.20;;;7.70;99.90;;;;;;5029655;28;21078;-61
2022/12/30 14:11:21;;;;;;;11.03;2.80;;;7.70;99.90;;;;;;5030531;28;20439;-62